sensor_id;sensor_type;location;lat;lon;timestamp;pressure;altitude;pressure_sealevel;temperature;humidity
141;BME280;65;48.778;9.160;2023-04-23T00:02:20;97860.25;;;14.53;72.90
141;BME280;65;48.778;9.160;2023-04-23T00:05:07;97867.06;;;14.46;72.99
141;BME280;65;48.778;9.160;2023-04-23T00:07:53;97870.09;;;14.62;71.91
141;BME280;65;48.778;9.160;2023-04-23T00:10:39;97867.72;;;14.59;73.14
141;BME280;65;48.778;9.160;2023-04-23T00:13:25;97872.06;;;14.60;72.30
141;BME280;65;48.778;9.160;2023-04-23T00:16:12;97867.63;;;14.70;71.61
141;BME280;65;48.778;9.160;2023-04-23T00:18:58;97874.56;;;14.82;71.43
141;BME280;65;48.778;9.160;2023-04-23T00:21:44;97864.06;;;14.81;71.52
141;BME280;65;48.778;9.160;2023-04-23T00:24:29;97868.66;;;14.79;73.01
141;BME280;65;48.778;9.160;2023-04-23T00:27:16;97874.63;;;14.71;72.83
141;BME280;65;48.778;9.160;2023-04-23T00:30:03;97872.75;;;14.62;75.10
141;BME280;65;48.778;9.160;2023-04-23T00:32:49;97866.78;;;14.49;76.65
141;BME280;65;48.778;9.160;2023-04-23T00:35:35;97868.75;;;14.47;77.51
141;BME280;65;48.778;9.160;2023-04-23T00:38:21;97876.72;;;14.36;78.72
141;BME280;65;48.778;9.160;2023-04-23T00:41:07;97872.88;;;14.29;79.38
141;BME280;65;48.778;9.160;2023-04-23T00:43:53;97874.31;;;14.33;79.92
141;BME280;65;48.778;9.160;2023-04-23T00:46:42;97881.06;;;14.37;79.59
141;BME280;65;48.778;9.160;2023-04-23T00:49:28;97888.56;;;14.32;79.47
141;BME280;65;48.778;9.160;2023-04-23T00:52:14;97895.88;;;14.18;81.05
141;BME280;65;48.778;9.160;2023-04-23T00:55:00;97896.66;;;14.09;84.38
141;BME280;65;48.778;9.160;2023-04-23T00:57:46;97902.47;;;14.03;84.51
141;BME280;65;48.778;9.160;2023-04-23T01:00:35;97903.09;;;13.96;85.29
141;BME280;65;48.778;9.160;2023-04-23T01:03:27;97900.31;;;13.86;86.01
141;BME280;65;48.778;9.160;2023-04-23T01:06:17;97904.56;;;13.88;86.02
141;BME280;65;48.778;9.160;2023-04-23T01:09:02;97900.31;;;13.86;85.82
141;BME280;65;48.778;9.160;2023-04-23T01:11:50;97894.91;;;13.87;83.79
141;BME280;65;48.778;9.160;2023-04-23T01:14:36;97890.81;;;13.72;85.79
141;BME280;65;48.778;9.160;2023-04-23T01:17:22;97905.41;;;13.78;86.92
141;BME280;65;48.778;9.160;2023-04-23T01:20:08;97907.94;;;13.79;85.74
141;BME280;65;48.778;9.160;2023-04-23T01:22:54;97897.66;;;13.86;84.15
141;BME280;65;48.778;9.160;2023-04-23T01:25:41;97905.88;;;13.83;86.07
141;BME280;65;48.778;9.160;2023-04-23T01:28:28;97903.34;;;13.81;87.05
141;BME280;65;48.778;9.160;2023-04-23T01:31:15;97911.44;;;13.80;86.75
141;BME280;65;48.778;9.160;2023-04-23T01:34:01;97916.03;;;13.78;85.71
141;BME280;65;48.778;9.160;2023-04-23T01:36:47;97917.72;;;13.79;86.94
141;BME280;65;48.778;9.160;2023-04-23T01:39:34;97915.06;;;13.79;88.02
141;BME280;65;48.778;9.160;2023-04-23T01:42:21;97921.72;;;13.73;86.21
141;BME280;65;48.778;9.160;2023-04-23T01:45:08;97912.16;;;13.82;85.33
141;BME280;65;48.778;9.160;2023-04-23T01:47:54;97922.06;;;13.80;86.07
141;BME280;65;48.778;9.160;2023-04-23T01:50:40;97915.06;;;13.79;85.95
141;BME280;65;48.778;9.160;2023-04-23T01:53:26;97918.56;;;13.79;85.50
141;BME280;65;48.778;9.160;2023-04-23T01:56:14;97930.28;;;13.77;85.28
141;BME280;65;48.778;9.160;2023-04-23T01:59:00;97920.63;;;13.76;86.10
141;BME280;65;48.778;9.160;2023-04-23T02:01:47;97921.72;;;13.73;86.21
141;BME280;65;48.778;9.160;2023-04-23T02:04:34;97924.50;;;13.72;86.29
141;BME280;65;48.778;9.160;2023-04-23T02:07:20;97924.97;;;13.66;87.53
141;BME280;65;48.778;9.160;2023-04-23T02:10:06;97911.34;;;13.70;86.77
141;BME280;65;48.778;9.160;2023-04-23T02:12:52;97935.59;;;13.66;88.00
141;BME280;65;48.778;9.160;2023-04-23T02:15:38;97947.56;;;13.60;88.58
141;BME280;65;48.778;9.160;2023-04-23T02:18:25;97952.28;;;13.56;89.58
141;BME280;65;48.778;9.160;2023-04-23T02:21:10;97953.00;;;13.58;90.59
141;BME280;65;48.778;9.160;2023-04-23T02:23:57;97960.84;;;13.60;92.25
141;BME280;65;48.778;9.160;2023-04-23T02:26:43;97953.59;;;13.40;92.89
141;BME280;65;48.778;9.160;2023-04-23T02:29:29;97947.63;;;13.14;98.02
141;BME280;65;48.778;9.160;2023-04-23T02:32:15;97944.69;;;12.94;100.00
141;BME280;65;48.778;9.160;2023-04-23T02:35:35;97948.75;;;12.76;100.00
141;BME280;65;48.778;9.160;2023-04-23T02:38:20;97941.69;;;12.64;100.00
141;BME280;65;48.778;9.160;2023-04-23T02:41:06;97943.34;;;12.54;100.00
141;BME280;65;48.778;9.160;2023-04-23T02:43:52;97941.00;;;12.38;100.00
141;BME280;65;48.778;9.160;2023-04-23T02:46:38;97938.16;;;12.17;100.00
141;BME280;65;48.778;9.160;2023-04-23T02:49:24;97933.94;;;12.02;100.00
141;BME280;65;48.778;9.160;2023-04-23T02:52:10;97925.31;;;11.87;100.00
141;BME280;65;48.778;9.160;2023-04-23T02:54:56;97923.53;;;11.75;100.00
141;BME280;65;48.778;9.160;2023-04-23T02:57:42;97950.88;;;11.76;100.00
141;BME280;65;48.778;9.160;2023-04-23T03:00:27;97948.66;;;11.69;100.00
141;BME280;65;48.778;9.160;2023-04-23T03:03:13;97954.78;;;11.70;100.00
141;BME280;65;48.778;9.160;2023-04-23T03:06:00;97957.13;;;11.75;100.00
141;BME280;65;48.778;9.160;2023-04-23T03:08:46;97951.53;;;11.66;100.00
141;BME280;65;48.778;9.160;2023-04-23T03:11:41;97946.56;;;11.62;100.00
141;BME280;65;48.778;9.160;2023-04-23T03:14:26;97945.59;;;11.63;100.00
141;BME280;65;48.778;9.160;2023-04-23T03:17:12;97947.91;;;11.67;100.00
141;BME280;65;48.778;9.160;2023-04-23T03:19:58;97941.44;;;11.71;100.00
141;BME280;65;48.778;9.160;2023-04-23T03:22:43;97939.75;;;11.70;100.00
141;BME280;65;48.778;9.160;2023-04-23T03:25:30;97945.72;;;11.61;100.00
141;BME280;65;48.778;9.160;2023-04-23T03:28:16;97945.94;;;11.58;100.00
141;BME280;65;48.778;9.160;2023-04-23T03:31:01;97935.75;;;11.52;100.00
141;BME280;65;48.778;9.160;2023-04-23T03:33:47;97941.66;;;11.56;100.00
141;BME280;65;48.778;9.160;2023-04-23T03:36:33;97934.69;;;11.55;100.00
141;BME280;65;48.778;9.160;2023-04-23T03:39:18;97932.38;;;11.63;100.00
141;BME280;65;48.778;9.160;2023-04-23T03:42:04;97929.94;;;11.60;100.00
141;BME280;65;48.778;9.160;2023-04-23T03:44:50;97933.66;;;11.57;100.00
141;BME280;65;48.778;9.160;2023-04-23T03:47:36;97933.66;;;11.57;100.00
141;BME280;65;48.778;9.160;2023-04-23T03:50:21;97923.91;;;11.58;100.00
141;BME280;65;48.778;9.160;2023-04-23T03:53:07;97925.78;;;11.56;100.00
141;BME280;65;48.778;9.160;2023-04-23T03:55:54;97937.25;;;11.56;100.00
141;BME280;65;48.778;9.160;2023-04-23T03:58:40;97943.69;;;11.65;100.00
141;BME280;65;48.778;9.160;2023-04-23T04:01:25;97945.28;;;11.67;100.00
141;BME280;65;48.778;9.160;2023-04-23T04:04:11;97950.56;;;11.67;100.00
141;BME280;65;48.778;9.160;2023-04-23T04:06:58;97954.91;;;11.68;100.00
141;BME280;65;48.778;9.160;2023-04-23T04:09:45;97953.31;;;11.66;100.00
141;BME280;65;48.778;9.160;2023-04-23T04:12:32;97958.72;;;11.64;100.00
141;BME280;65;48.778;9.160;2023-04-23T04:15:17;97954.91;;;11.68;100.00
141;BME280;65;48.778;9.160;2023-04-23T04:18:05;97954.81;;;11.57;100.00
141;BME280;65;48.778;9.160;2023-04-23T04:20:51;97952.38;;;11.54;100.00
141;BME280;65;48.778;9.160;2023-04-23T04:23:37;97954.63;;;11.35;100.00
141;BME280;65;48.778;9.160;2023-04-23T04:26:24;97953.88;;;11.46;100.00
141;BME280;65;48.778;9.160;2023-04-23T04:29:10;97958.00;;;11.37;100.00
141;BME280;65;48.778;9.160;2023-04-23T04:31:56;97954.84;;;11.32;100.00
141;BME280;65;48.778;9.160;2023-04-23T04:34:42;97957.78;;;11.40;100.00
141;BME280;65;48.778;9.160;2023-04-23T04:37:28;97955.91;;;11.29;100.00
141;BME280;65;48.778;9.160;2023-04-23T04:40:13;97959.09;;;11.22;100.00
141;BME280;65;48.778;9.160;2023-04-23T04:42:59;97968.19;;;11.18;100.00
141;BME280;65;48.778;9.160;2023-04-23T04:45:45;97961.19;;;11.17;100.00
141;BME280;65;48.778;9.160;2023-04-23T04:48:30;97951.91;;;11.11;100.00
141;BME280;65;48.778;9.160;2023-04-23T04:51:16;97954.00;;;11.19;100.00
141;BME280;65;48.778;9.160;2023-04-23T04:54:02;97947.88;;;11.18;100.00
141;BME280;65;48.778;9.160;2023-04-23T04:56:48;97957.19;;;11.24;100.00
141;BME280;65;48.778;9.160;2023-04-23T05:03:00;97954.94;;;11.30;100.00
141;BME280;65;48.778;9.160;2023-04-23T05:05:46;97954.19;;;11.41;100.00
141;BME280;65;48.778;9.160;2023-04-23T05:08:33;97953.13;;;11.56;100.00
141;BME280;65;48.778;9.160;2023-04-23T05:11:19;97952.66;;;11.75;100.00
141;BME280;65;48.778;9.160;2023-04-23T05:14:05;97964.03;;;12.01;100.00
141;BME280;65;48.778;9.160;2023-04-23T05:16:51;97961.53;;;12.23;100.00
141;BME280;65;48.778;9.160;2023-04-23T05:19:36;97953.47;;;12.49;100.00
141;BME280;65;48.778;9.160;2023-04-23T05:22:22;97942.00;;;12.72;100.00
141;BME280;65;48.778;9.160;2023-04-23T05:25:09;97953.25;;;12.87;100.00
141;BME280;65;48.778;9.160;2023-04-23T05:27:56;97952.06;;;12.67;100.00
141;BME280;65;48.778;9.160;2023-04-23T05:30:42;97962.66;;;12.91;100.00
141;BME280;65;48.778;9.160;2023-04-23T05:33:28;97956.34;;;13.27;100.00
141;BME280;65;48.778;9.160;2023-04-23T05:36:13;97963.81;;;13.22;100.00
141;BME280;65;48.778;9.160;2023-04-23T05:38:59;97958.78;;;13.30;100.00
141;BME280;65;48.778;9.160;2023-04-23T05:41:45;97959.84;;;13.72;100.00
141;BME280;65;48.778;9.160;2023-04-23T05:44:31;97961.41;;;13.86;100.00
141;BME280;65;48.778;9.160;2023-04-23T05:47:16;97955.69;;;14.13;100.00
141;BME280;65;48.778;9.160;2023-04-23T05:50:02;97955.09;;;14.09;100.00
141;BME280;65;48.778;9.160;2023-04-23T05:52:48;97954.47;;;14.17;100.00
141;BME280;65;48.778;9.160;2023-04-23T05:55:34;97960.22;;;13.79;100.00
141;BME280;65;48.778;9.160;2023-04-23T05:58:20;97955.50;;;14.37;98.81
141;BME280;65;48.778;9.160;2023-04-23T06:01:06;97956.72;;;14.44;97.21
141;BME280;65;48.778;9.160;2023-04-23T06:03:51;97964.69;;;13.78;100.00
141;BME280;65;48.778;9.160;2023-04-23T06:06:37;97966.72;;;13.86;100.00
141;BME280;65;48.778;9.160;2023-04-23T06:09:23;97966.75;;;13.75;100.00
141;BME280;65;48.778;9.160;2023-04-23T06:12:09;97958.78;;;13.41;100.00
141;BME280;65;48.778;9.160;2023-04-23T06:14:56;97960.47;;;13.42;100.00
141;BME280;65;48.778;9.160;2023-04-23T06:17:41;97958.06;;;13.39;100.00
141;BME280;65;48.778;9.160;2023-04-23T06:20:28;97963.63;;;13.47;100.00
141;BME280;65;48.778;9.160;2023-04-23T06:23:13;97970.25;;;13.53;100.00
141;BME280;65;48.778;9.160;2023-04-23T06:25:59;97963.00;;;13.33;100.00
141;BME280;65;48.778;9.160;2023-04-23T06:28:45;97967.59;;;13.64;100.00
141;BME280;65;48.778;9.160;2023-04-23T06:31:31;97964.69;;;13.89;100.00
141;BME280;65;48.778;9.160;2023-04-23T06:34:17;97957.41;;;14.14;100.00
141;BME280;65;48.778;9.160;2023-04-23T06:37:17;97953.31;;;14.53;93.25
141;BME280;65;48.778;9.160;2023-04-23T06:40:03;97949.19;;;14.60;98.33
141;BME280;65;48.778;9.160;2023-04-23T06:42:48;97944.75;;;14.49;98.32
141;BME280;65;48.778;9.160;2023-04-23T06:45:34;97941.69;;;14.11;97.34
141;BME280;65;48.778;9.160;2023-04-23T06:48:20;97937.16;;;14.34;97.45
141;BME280;65;48.778;9.160;2023-04-23T06:51:06;97935.75;;;14.82;94.37
141;BME280;65;48.778;9.160;2023-04-23T06:53:52;97927.72;;;15.14;90.69
141;BME280;65;48.778;9.160;2023-04-23T06:56:38;97924.97;;;15.87;87.86
141;BME280;65;48.778;9.160;2023-04-23T06:59:24;97927.06;;;15.22;90.17
141;BME280;65;48.778;9.160;2023-04-23T07:02:09;97924.47;;;14.69;93.59
141;BME280;65;48.778;9.160;2023-04-23T07:04:55;97921.50;;;15.04;90.35
141;BME280;65;48.778;9.160;2023-04-23T07:07:42;97913.91;;;15.30;87.99
141;BME280;65;48.778;9.160;2023-04-23T07:10:27;97911.53;;;15.58;87.97
141;BME280;65;48.778;9.160;2023-04-23T07:13:14;97907.00;;;15.79;87.81
141;BME280;65;48.778;9.160;2023-04-23T07:16:00;97916.81;;;16.77;80.90
141;BME280;65;48.778;9.160;2023-04-23T07:18:45;97915.53;;;16.81;71.27
141;BME280;65;48.778;9.160;2023-04-23T07:21:31;97912.69;;;16.63;71.34
141;BME280;65;48.778;9.160;2023-04-23T07:24:17;97911.31;;;16.68;73.02
141;BME280;65;48.778;9.160;2023-04-23T07:27:03;97912.13;;;17.07;69.57
141;BME280;65;48.778;9.160;2023-04-23T07:29:48;97911.28;;;16.97;70.55
141;BME280;65;48.778;9.160;2023-04-23T07:32:34;97905.81;;;16.51;75.77
141;BME280;65;48.778;9.160;2023-04-23T07:35:20;97906.44;;;17.20;68.06
141;BME280;65;48.778;9.160;2023-04-23T07:38:06;97904.28;;;17.80;70.02
141;BME280;65;48.778;9.160;2023-04-23T07:40:52;97902.09;;;18.74;62.31
141;BME280;65;48.778;9.160;2023-04-23T07:43:39;97912.47;;;19.47;63.04
141;BME280;65;48.778;9.160;2023-04-23T07:46:25;97895.06;;;18.55;64.92
141;BME280;65;48.778;9.160;2023-04-23T07:49:10;97901.56;;;17.53;68.59
141;BME280;65;48.778;9.160;2023-04-23T07:51:56;97898.19;;;17.14;73.42
141;BME280;65;48.778;9.160;2023-04-23T07:54:42;97898.31;;;17.12;72.03
141;BME280;65;48.778;9.160;2023-04-23T07:57:28;97897.81;;;16.89;71.32
141;BME280;65;48.778;9.160;2023-04-23T08:00:14;97896.00;;;16.51;70.16
141;BME280;65;48.778;9.160;2023-04-23T08:03:01;97892.03;;;16.17;75.60
141;BME280;65;48.778;9.160;2023-04-23T08:05:47;97891.34;;;16.14;70.71
141;BME280;65;48.778;9.160;2023-04-23T08:08:32;97899.44;;;17.19;67.64
141;BME280;65;48.778;9.160;2023-04-23T08:11:18;97889.38;;;19.20;55.85
141;BME280;65;48.778;9.160;2023-04-23T08:14:04;97881.97;;;19.48;59.66
141;BME280;65;48.778;9.160;2023-04-23T08:16:50;97868.66;;;19.30;55.47
141;BME280;65;48.778;9.160;2023-04-23T08:19:36;97871.63;;;19.19;60.68
141;BME280;65;48.778;9.160;2023-04-23T08:22:21;97863.69;;;19.09;55.52
141;BME280;65;48.778;9.160;2023-04-23T08:25:09;97869.44;;;17.62;66.17
141;BME280;65;48.778;9.160;2023-04-23T08:27:55;97874.88;;;17.80;62.35
141;BME280;65;48.778;9.160;2023-04-23T08:30:40;97879.59;;;17.59;63.75
141;BME280;65;48.778;9.160;2023-04-23T08:33:26;97880.78;;;17.47;64.68
141;BME280;65;48.778;9.160;2023-04-23T08:36:12;97870.41;;;17.44;63.78
141;BME280;65;48.778;9.160;2023-04-23T08:38:59;97871.19;;;17.54;62.38
141;BME280;65;48.778;9.160;2023-04-23T08:41:48;97866.13;;;17.51;60.91
141;BME280;65;48.778;9.160;2023-04-23T08:44:40;97858.88;;;17.43;65.12
141;BME280;65;48.778;9.160;2023-04-23T08:47:49;97867.44;;;18.99;56.42
141;BME280;65;48.778;9.160;2023-04-23T08:50:36;97860.50;;;19.40;53.97
141;BME280;65;48.778;9.160;2023-04-23T08:53:24;97866.88;;;21.12;48.80
141;BME280;65;48.778;9.160;2023-04-23T08:56:12;97862.34;;;21.13;48.88
141;BME280;65;48.778;9.160;2023-04-23T08:58:59;97857.44;;;21.41;50.58
141;BME280;65;48.778;9.160;2023-04-23T09:01:48;97862.50;;;21.20;47.50
141;BME280;65;48.778;9.160;2023-04-23T09:04:34;97848.97;;;19.73;50.41
141;BME280;65;48.778;9.160;2023-04-23T09:07:20;97853.75;;;19.02;52.62
141;BME280;65;48.778;9.160;2023-04-23T09:10:07;97846.59;;;18.84;53.11
141;BME280;65;48.778;9.160;2023-04-23T09:12:53;97844.25;;;18.46;53.26
141;BME280;65;48.778;9.160;2023-04-23T09:15:39;97851.63;;;19.39;51.42
141;BME280;65;48.778;9.160;2023-04-23T09:18:27;97839.78;;;19.92;49.17
141;BME280;65;48.778;9.160;2023-04-23T09:21:13;97833.31;;;20.27;49.28
141;BME280;65;48.778;9.160;2023-04-23T09:24:03;97831.00;;;20.40;46.92
141;BME280;65;48.778;9.160;2023-04-23T09:26:50;97830.13;;;21.05;44.28
141;BME280;65;48.778;9.160;2023-04-23T09:29:36;97820.50;;;21.19;45.62
141;BME280;65;48.778;9.160;2023-04-23T09:32:30;97810.94;;;22.25;44.96
141;BME280;65;48.778;9.160;2023-04-23T09:35:18;97812.22;;;23.13;40.98
141;BME280;65;48.778;9.160;2023-04-23T09:38:06;97804.00;;;22.31;42.36
141;BME280;65;48.778;9.160;2023-04-23T09:40:52;97800.47;;;20.58;44.49
141;BME280;65;48.778;9.160;2023-04-23T09:43:40;97801.75;;;22.80;41.93
141;BME280;65;48.778;9.160;2023-04-23T09:49:19;97795.94;;;24.86;36.67
141;BME280;65;48.778;9.160;2023-04-23T09:52:05;97796.88;;;26.30;35.64
141;BME280;65;48.778;9.160;2023-04-23T09:54:51;97786.69;;;26.52;34.98
141;BME280;65;48.778;9.160;2023-04-23T09:57:40;97788.16;;;29.11;29.06
141;BME280;65;48.778;9.160;2023-04-23T10:00:32;97787.78;;;27.82;33.90
141;BME280;65;48.778;9.160;2023-04-23T10:03:25;97781.22;;;29.15;30.39
141;BME280;65;48.778;9.160;2023-04-23T10:06:14;97772.75;;;29.23;26.86
141;BME280;65;48.778;9.160;2023-04-23T10:09:00;97771.50;;;29.44;27.15
141;BME280;65;48.778;9.160;2023-04-23T10:12:01;97770.63;;;26.97;30.26
141;BME280;65;48.778;9.160;2023-04-23T10:14:47;97758.38;;;26.61;32.54
141;BME280;65;48.778;9.160;2023-04-23T10:17:38;97746.13;;;27.94;30.35
141;BME280;65;48.778;9.160;2023-04-23T10:20:24;97751.22;;;26.21;31.42
141;BME280;65;48.778;9.160;2023-04-23T10:23:10;97752.94;;;24.21;34.96
141;BME280;65;48.778;9.160;2023-04-23T10:25:58;97743.09;;;24.13;36.10
141;BME280;65;48.778;9.160;2023-04-23T10:28:46;97734.53;;;23.52;34.10
141;BME280;65;48.778;9.160;2023-04-23T10:31:33;97744.88;;;22.75;39.94
141;BME280;65;48.778;9.160;2023-04-23T10:34:20;97744.25;;;24.25;33.73
141;BME280;65;48.778;9.160;2023-04-23T10:37:08;97734.41;;;25.23;31.11
141;BME280;65;48.778;9.160;2023-04-23T10:39:55;97731.03;;;22.78;35.98
141;BME280;65;48.778;9.160;2023-04-23T10:42:44;97727.28;;;23.89;33.93
141;BME280;65;48.778;9.160;2023-04-23T10:45:30;97731.78;;;24.24;37.55
141;BME280;65;48.778;9.160;2023-04-23T10:48:17;97727.22;;;22.35;39.34
141;BME280;65;48.778;9.160;2023-04-23T10:51:03;97722.56;;;24.89;34.32
141;BME280;65;48.778;9.160;2023-04-23T10:53:50;97716.63;;;26.09;34.20
141;BME280;65;48.778;9.160;2023-04-23T10:56:40;97716.84;;;25.47;32.60
141;BME280;65;48.778;9.160;2023-04-23T10:59:26;97710.06;;;24.60;35.86
141;BME280;65;48.778;9.160;2023-04-23T11:02:14;97707.25;;;24.26;34.42
141;BME280;65;48.778;9.160;2023-04-23T11:05:00;97710.03;;;23.32;35.34
141;BME280;65;48.778;9.160;2023-04-23T11:10:57;97703.38;;;23.50;38.85
141;BME280;65;48.778;9.160;2023-04-23T11:13:50;97691.94;;;25.17;34.17
141;BME280;65;48.778;9.160;2023-04-23T11:16:38;97695.81;;;23.75;35.75
141;BME280;65;48.778;9.160;2023-04-23T11:19:24;97694.75;;;24.40;35.71
141;BME280;65;48.778;9.160;2023-04-23T11:22:14;97689.31;;;22.22;38.29
141;BME280;65;48.778;9.160;2023-04-23T11:25:09;97696.94;;;20.06;42.87
141;BME280;65;48.778;9.160;2023-04-23T11:27:56;97695.78;;;19.68;45.36
141;BME280;65;48.778;9.160;2023-04-23T11:30:49;97688.56;;;20.09;42.34
141;BME280;65;48.778;9.160;2023-04-23T11:33:37;97682.50;;;20.32;41.89
141;BME280;65;48.778;9.160;2023-04-23T11:36:23;97677.50;;;20.29;42.92
141;BME280;65;48.778;9.160;2023-04-23T11:39:09;97669.88;;;20.65;41.76
141;BME280;65;48.778;9.160;2023-04-23T11:41:56;97665.22;;;20.34;40.67
141;BME280;65;48.778;9.160;2023-04-23T11:44:47;97653.84;;;21.95;41.15
141;BME280;65;48.778;9.160;2023-04-23T11:47:33;97641.25;;;22.48;36.51
141;BME280;65;48.778;9.160;2023-04-23T11:50:22;97637.44;;;24.23;37.37
141;BME280;65;48.778;9.160;2023-04-23T11:53:09;97635.88;;;24.07;36.71
141;BME280;65;48.778;9.160;2023-04-23T11:55:56;97639.69;;;24.19;36.58
141;BME280;65;48.778;9.160;2023-04-23T11:58:42;97631.38;;;23.50;39.86
141;BME280;65;48.778;9.160;2023-04-23T12:01:45;97627.81;;;23.28;35.93
141;BME280;65;48.778;9.160;2023-04-23T12:04:31;97618.13;;;22.24;38.77
141;BME280;65;48.778;9.160;2023-04-23T12:07:17;97608.19;;;20.88;43.34
141;BME280;65;48.778;9.160;2023-04-23T12:10:03;97609.94;;;22.03;40.70
141;BME280;65;48.778;9.160;2023-04-23T12:12:52;97606.09;;;23.15;35.68
141;BME280;65;48.778;9.160;2023-04-23T12:15:49;97601.97;;;22.39;38.83
141;BME280;65;48.778;9.160;2023-04-23T12:18:41;97603.16;;;21.46;41.04
141;BME280;65;48.778;9.160;2023-04-23T12:21:28;97598.66;;;20.77;44.99
141;BME280;65;48.778;9.160;2023-04-23T12:24:14;97599.69;;;20.68;44.13
141;BME280;65;48.778;9.160;2023-04-23T12:27:00;97592.47;;;20.68;41.25
141;BME280;65;48.778;9.160;2023-04-23T12:29:47;97593.78;;;20.25;43.89
141;BME280;65;48.778;9.160;2023-04-23T12:32:36;97594.00;;;19.99;44.14
141;BME280;65;48.778;9.160;2023-04-23T12:35:49;97589.06;;;20.82;46.75
141;BME280;65;48.778;9.160;2023-04-23T12:38:35;97580.34;;;22.03;41.46
141;BME280;65;48.778;9.160;2023-04-23T12:41:20;97576.59;;;22.92;39.18
141;BME280;65;48.778;9.160;2023-04-23T12:44:06;97573.28;;;23.12;40.09
141;BME280;65;48.778;9.160;2023-04-23T12:47:03;97560.63;;;25.08;34.44
141;BME280;65;48.778;9.160;2023-04-23T12:49:49;97552.84;;;25.66;34.24
141;BME280;65;48.778;9.160;2023-04-23T12:52:37;97550.84;;;25.00;35.86
141;BME280;65;48.778;9.160;2023-04-23T12:55:23;97545.56;;;23.60;35.63
141;BME280;65;48.778;9.160;2023-04-23T12:58:08;97541.56;;;20.83;40.90
141;BME280;65;48.778;9.160;2023-04-23T13:00:55;97538.09;;;20.66;44.94
141;BME280;65;48.778;9.160;2023-04-23T13:03:41;97537.28;;;20.97;41.83
141;BME280;65;48.778;9.160;2023-04-23T13:06:26;97529.53;;;22.44;39.76
141;BME280;65;48.778;9.160;2023-04-23T13:09:13;97527.91;;;23.15;37.26
141;BME280;65;48.778;9.160;2023-04-23T13:11:59;97512.00;;;23.91;38.08
141;BME280;65;48.778;9.160;2023-04-23T13:14:45;97510.72;;;23.16;35.86
141;BME280;65;48.778;9.160;2023-04-23T13:17:37;97494.44;;;23.10;40.21
141;BME280;65;48.778;9.160;2023-04-23T13:20:23;97483.25;;;24.52;32.69
141;BME280;65;48.778;9.160;2023-04-23T13:23:10;97478.06;;;24.16;34.55
141;BME280;65;48.778;9.160;2023-04-23T13:25:57;97481.97;;;24.07;33.46
141;BME280;65;48.778;9.160;2023-04-23T13:28:43;97476.22;;;24.58;33.10
141;BME280;65;48.778;9.160;2023-04-23T13:31:29;97465.53;;;22.61;35.30
141;BME280;65;48.778;9.160;2023-04-23T13:34:15;97474.75;;;23.09;34.71
141;BME280;65;48.778;9.160;2023-04-23T13:37:01;97457.19;;;22.77;34.25
141;BME280;65;48.778;9.160;2023-04-23T13:39:50;97455.47;;;22.69;35.25
141;BME280;65;48.778;9.160;2023-04-23T13:42:35;97461.03;;;23.25;32.93
141;BME280;65;48.778;9.160;2023-04-23T13:45:21;97447.41;;;22.91;34.40
141;BME280;65;48.778;9.160;2023-04-23T13:48:07;97451.56;;;22.72;34.08
141;BME280;65;48.778;9.160;2023-04-23T13:50:54;97437.19;;;23.08;33.07
141;BME280;65;48.778;9.160;2023-04-23T13:53:39;97429.69;;;23.52;31.37
141;BME280;65;48.778;9.160;2023-04-23T13:56:25;97432.97;;;24.10;30.88
141;BME280;65;48.778;9.160;2023-04-23T13:59:11;97414.22;;;24.43;31.75
141;BME280;65;48.778;9.160;2023-04-23T14:01:57;97409.34;;;24.93;32.35
141;BME280;65;48.778;9.160;2023-04-23T14:04:43;97404.19;;;25.18;30.37
141;BME280;65;48.778;9.160;2023-04-23T14:07:29;97397.94;;;25.37;31.19
141;BME280;65;48.778;9.160;2023-04-23T14:10:15;97397.53;;;25.14;28.69
141;BME280;65;48.778;9.160;2023-04-23T14:13:01;97389.00;;;25.04;29.20
141;BME280;65;48.778;9.160;2023-04-23T14:15:48;97376.72;;;24.95;28.88
141;BME280;65;48.778;9.160;2023-04-23T14:18:33;97374.56;;;24.03;28.85
141;BME280;65;48.778;9.160;2023-04-23T14:21:21;97382.63;;;23.27;30.52
141;BME280;65;48.778;9.160;2023-04-23T14:24:08;97378.47;;;23.24;31.76
141;BME280;65;48.778;9.160;2023-04-23T14:27:23;97368.38;;;23.12;32.25
141;BME280;65;48.778;9.160;2023-04-23T14:30:17;97365.56;;;23.20;31.19
141;BME280;65;48.778;9.160;2023-04-23T14:33:03;97365.41;;;23.28;30.39
141;BME280;65;48.778;9.160;2023-04-23T14:35:49;97353.38;;;23.02;31.38
141;BME280;65;48.778;9.160;2023-04-23T14:38:34;97353.91;;;22.27;32.68
141;BME280;65;48.778;9.160;2023-04-23T14:41:20;97358.66;;;22.25;32.33
141;BME280;65;48.778;9.160;2023-04-23T14:44:06;97351.56;;;22.03;33.45
141;BME280;65;48.778;9.160;2023-04-23T14:46:52;97346.47;;;21.78;33.26
141;BME280;65;48.778;9.160;2023-04-23T14:49:38;97344.00;;;21.62;33.25
141;BME280;65;48.778;9.160;2023-04-23T14:52:25;97342.53;;;21.45;33.52
141;BME280;65;48.778;9.160;2023-04-23T14:55:11;97328.00;;;21.16;34.38
141;BME280;65;48.778;9.160;2023-04-23T14:57:57;97340.97;;;20.98;34.72
141;BME280;65;48.778;9.160;2023-04-23T15:00:43;97345.66;;;20.81;35.78
141;BME280;65;48.778;9.160;2023-04-23T15:03:29;97338.13;;;20.77;35.74
141;BME280;65;48.778;9.160;2023-04-23T15:06:14;97341.13;;;20.82;36.46
141;BME280;65;48.778;9.160;2023-04-23T15:09:00;97359.28;;;20.57;37.21
141;BME280;65;48.778;9.160;2023-04-23T15:11:46;97352.00;;;20.43;39.63
141;BME280;65;48.778;9.160;2023-04-23T15:14:36;97345.19;;;20.32;39.67
141;BME280;65;48.778;9.160;2023-04-23T15:17:22;97347.69;;;20.57;39.29
141;BME280;65;48.778;9.160;2023-04-23T15:20:08;97342.81;;;20.60;38.13
141;BME280;65;48.778;9.160;2023-04-23T15:22:54;97341.25;;;20.66;38.52
141;BME280;65;48.778;9.160;2023-04-23T15:25:40;97347.47;;;20.43;39.49
141;BME280;65;48.778;9.160;2023-04-23T15:28:25;97344.13;;;20.41;38.21
141;BME280;65;48.778;9.160;2023-04-23T15:31:11;97343.94;;;20.12;39.41
141;BME280;65;48.778;9.160;2023-04-23T15:33:57;97356.75;;;20.02;39.23
141;BME280;65;48.778;9.160;2023-04-23T15:36:43;97371.38;;;19.44;44.52
141;BME280;65;48.778;9.160;2023-04-23T15:39:28;97401.53;;;18.40;54.49
141;BME280;65;48.778;9.160;2023-04-23T15:42:14;97393.72;;;17.28;56.46
141;BME280;65;48.778;9.160;2023-04-23T15:45:02;97392.84;;;16.58;57.23
141;BME280;65;48.778;9.160;2023-04-23T15:47:50;97396.97;;;16.53;64.71
141;BME280;65;48.778;9.160;2023-04-23T15:50:36;97375.06;;;16.23;69.85
141;BME280;65;48.778;9.160;2023-04-23T15:53:21;97377.47;;;16.17;70.04
141;BME280;65;48.778;9.160;2023-04-23T15:56:07;97367.66;;;16.35;71.84